createdAt,value
2022-09-15T00:01:43.507Z,6.57
2022-09-15T00:04:12.248Z,6.55
2022-09-15T00:06:40.841Z,7.18
2022-09-15T00:09:09.443Z,7.05
2022-09-15T00:11:39.021Z,6.78
2022-09-15T00:14:09.275Z,6.65
2022-09-15T00:16:38.466Z,6.72
2022-09-15T00:19:07.777Z,6.60
2022-09-15T00:21:38.747Z,7.05
2022-09-15T00:24:08.065Z,6.70
2022-09-15T00:26:37.560Z,7.45
2022-09-15T00:29:06.627Z,7.10
2022-09-15T00:31:35.034Z,6.63
2022-09-15T00:34:04.139Z,6.60
2022-09-15T00:36:33.083Z,6.50
2022-09-15T00:39:01.466Z,7.30
2022-09-15T00:41:31.775Z,6.18
2022-09-15T00:44:05.888Z,6.70
2022-09-15T00:46:36.903Z,7.10
2022-09-15T00:49:29.588Z,6.82
2022-09-15T00:52:05.593Z,6.03
2022-09-15T00:54:57.217Z,6.13
2022-09-15T00:57:36.891Z,6.72
2022-09-15T01:00:10.363Z,7.03
2022-09-15T01:02:40.472Z,6.68
2022-09-15T01:05:13.334Z,7.05
2022-09-15T01:10:35.805Z,6.53
2022-09-15T01:13:08.819Z,6.03
2022-09-15T01:16:13.866Z,6.57
2022-09-15T01:18:53.038Z,6.00
2022-09-15T01:21:24.581Z,6.03
2022-09-15T01:24:26.869Z,6.32
2022-09-15T01:27:30.536Z,5.82
2022-09-15T01:30:03.006Z,6.78
2022-09-15T01:33:05.520Z,6.20
2022-09-15T01:35:55.933Z,6.05
2022-09-15T01:38:41.125Z,5.85
2022-09-15T01:41:36.702Z,6.00
2022-09-15T01:44:23.612Z,6.43
2022-09-15T01:46:58.433Z,5.90
2022-09-15T01:50:14.359Z,6.25
2022-09-15T01:52:51.290Z,5.93
2022-09-15T01:55:28.931Z,6.20
2022-09-15T01:57:58.758Z,5.70
2022-09-15T02:00:27.322Z,6.00
2022-09-15T02:03:04.478Z,6.40
2022-09-15T02:05:42.166Z,6.28
2022-09-15T02:08:36.196Z,5.80
2022-09-15T02:11:16.609Z,6.53
2022-09-15T02:14:04.755Z,5.57
2022-09-15T02:16:37.395Z,6.78
2022-09-15T02:19:12.514Z,6.18
2022-09-15T02:21:58.878Z,6.05
2022-09-15T02:24:45.827Z,8.32
2022-09-15T02:27:23.078Z,6.35
2022-09-15T02:29:57.147Z,6.30
2022-09-15T02:32:28.306Z,5.93
2022-09-15T02:34:58.781Z,6.60
2022-09-15T02:37:28.853Z,6.22
2022-09-15T02:40:01.722Z,5.70
2022-09-15T02:45:00.834Z,5.68
2022-09-15T02:47:30.297Z,5.30
2022-09-15T02:49:58.935Z,4.90
2022-09-15T02:52:27.589Z,5.55
2022-09-15T02:54:56.163Z,5.35
2022-09-15T02:57:25.298Z,5.82
2022-09-15T03:00:12.133Z,6.00
2022-09-15T03:02:42.459Z,5.03
2022-09-15T03:05:12.064Z,5.18
2022-09-15T03:07:42.859Z,5.47
2022-09-15T03:10:13.402Z,5.10
2022-09-15T03:12:45.084Z,5.03
2022-09-15T03:15:15.909Z,5.10
2022-09-15T03:17:46.015Z,5.63
2022-09-15T03:20:24.063Z,4.88
2022-09-15T03:22:52.800Z,5.32
2022-09-15T03:25:21.735Z,4.78
2022-09-15T03:27:50.422Z,5.07
2022-09-15T03:30:19.014Z,5.32
2022-09-15T03:32:47.618Z,4.93
2022-09-15T03:35:16.285Z,4.78
2022-09-15T03:37:44.824Z,4.28
2022-09-15T03:40:13.484Z,4.45
2022-09-15T03:42:42.740Z,4.80
2022-09-15T03:45:11.534Z,3.97
2022-09-15T03:47:40.300Z,4.68
2022-09-15T03:50:09.023Z,4.80
2022-09-15T03:52:37.665Z,3.78
2022-09-15T03:55:06.515Z,3.90
2022-09-15T03:57:35.098Z,3.70
2022-09-15T04:00:05.506Z,4.05
2022-09-15T04:02:34.219Z,4.38
2022-09-15T04:05:04.200Z,3.92
2022-09-15T04:07:32.861Z,4.18
2022-09-15T04:10:02.268Z,4.20
2022-09-15T04:12:33.363Z,4.32
2022-09-15T04:15:02.262Z,3.75
2022-09-15T04:17:31.029Z,3.78
2022-09-15T04:19:59.955Z,3.72
2022-09-15T04:22:32.572Z,3.40
2022-09-15T04:25:01.266Z,3.53
2022-09-15T04:27:30.273Z,4.00
2022-09-15T04:29:59.012Z,4.25
2022-09-15T04:32:30.765Z,4.75
2022-09-15T04:34:59.376Z,3.65
2022-09-15T04:37:27.755Z,3.85
2022-09-15T04:39:56.013Z,3.85
2022-09-15T04:42:25.277Z,3.20
2022-09-15T04:44:53.914Z,3.60
2022-09-15T04:47:22.322Z,3.65
2022-09-15T04:49:50.843Z,3.45
2022-09-15T04:52:19.390Z,3.30
2022-09-15T04:54:47.974Z,3.80
2022-09-15T04:57:16.565Z,3.70
2022-09-15T04:59:45.147Z,3.58
2022-09-15T05:02:13.562Z,4.38
2022-09-15T05:04:42.244Z,3.58
2022-09-15T05:07:10.590Z,3.25
2022-09-15T05:09:39.559Z,3.55
2022-09-15T05:12:08.133Z,3.15
2022-09-15T05:14:36.446Z,4.30
2022-09-15T05:17:05.388Z,3.70
2022-09-15T05:19:34.110Z,4.10
2022-09-15T05:22:02.800Z,4.22
2022-09-15T05:24:31.162Z,4.25
2022-09-15T05:26:59.673Z,4.22
2022-09-15T05:29:28.287Z,3.70
2022-09-15T05:31:56.858Z,3.95
2022-09-15T05:34:25.598Z,3.88
2022-09-15T05:36:54.114Z,4.63
2022-09-15T05:39:22.722Z,4.13
2022-09-15T05:41:51.266Z,4.45
2022-09-15T05:44:19.997Z,4.47
2022-09-15T05:46:49.661Z,4.28
2022-09-15T05:49:18.224Z,4.60
2022-09-15T05:51:46.808Z,4.30
2022-09-15T05:54:18.461Z,4.20
2022-09-15T05:56:46.970Z,5.07
2022-09-15T05:59:15.628Z,4.30
2022-09-15T06:01:44.484Z,4.65
2022-09-15T06:04:13.337Z,4.88
2022-09-15T06:06:41.881Z,4.57
2022-09-15T06:09:10.841Z,5.13
2022-09-15T06:11:39.396Z,5.03
2022-09-15T06:14:07.968Z,4.95
2022-09-15T06:16:36.940Z,5.30
2022-09-15T06:19:06.553Z,5.20
2022-09-15T06:21:35.451Z,5.03
2022-09-15T06:24:08.219Z,5.07
2022-09-15T06:26:36.822Z,5.20
2022-09-15T06:29:05.957Z,4.60
2022-09-15T06:31:35.943Z,5.20
2022-09-15T06:34:05.392Z,4.88
2022-09-15T06:36:34.971Z,6.47
2022-09-15T06:39:04.166Z,5.22
2022-09-15T06:41:58.465Z,5.43
2022-09-15T06:44:22.076Z,5.80
2022-09-15T06:46:51.009Z,5.45
2022-09-15T06:49:20.108Z,5.45
2022-09-15T06:51:49.276Z,5.50
2022-09-15T06:54:18.180Z,5.15
2022-09-15T06:56:46.537Z,6.55
2022-09-15T06:59:16.571Z,5.78
2022-09-15T07:01:45.752Z,5.43
2022-09-15T07:04:14.686Z,5.53
2022-09-15T07:06:43.295Z,5.72
2022-09-15T07:09:12.482Z,6.15
2022-09-15T07:11:41.465Z,5.75
2022-09-15T07:14:10.319Z,6.53
2022-09-15T07:16:39.379Z,5.55
2022-09-15T07:19:08.157Z,6.07
2022-09-15T07:21:36.988Z,5.93
2022-09-15T07:24:07.477Z,5.97
2022-09-15T07:26:36.382Z,6.10
2022-09-15T07:29:08.058Z,6.53
2022-09-15T07:31:39.201Z,5.97
2022-09-15T07:34:08.987Z,6.22
2022-09-15T07:36:37.827Z,5.45
2022-09-15T07:39:06.948Z,6.68
2022-09-15T07:41:35.769Z,6.72
2022-09-15T07:44:04.509Z,7.03
2022-09-15T07:46:34.779Z,6.35
2022-09-15T07:49:04.499Z,6.40
2022-09-15T07:51:33.109Z,6.55
2022-09-15T07:54:02.030Z,6.22
2022-09-15T07:56:30.778Z,7.43
2022-09-15T07:58:59.593Z,6.90
2022-09-15T08:01:28.738Z,6.30
2022-09-15T08:04:00.424Z,7.00
2022-09-15T08:06:29.651Z,6.68
2022-09-15T08:09:00.930Z,6.57
2022-09-15T08:11:30.489Z,6.88
2022-09-15T08:14:03.529Z,6.50
2022-09-15T08:16:32.632Z,7.38
2022-09-15T08:19:02.145Z,6.22
2022-09-15T08:21:31.297Z,6.80
2022-09-15T08:24:01.046Z,6.45
2022-09-15T08:26:31.105Z,7.70
2022-09-15T08:29:00.651Z,6.43
2022-09-15T08:31:29.440Z,6.70
2022-09-15T08:33:58.182Z,7.30
2022-09-15T08:36:28.887Z,6.57
2022-09-15T08:38:57.737Z,7.57
2022-09-15T08:41:26.239Z,7.20
2022-09-15T08:44:17.459Z,7.30
2022-09-15T08:46:58.446Z,6.68
2022-09-15T08:49:50.977Z,6.93
2022-09-15T08:52:39.454Z,7.40
2022-09-15T08:55:17.222Z,6.63
2022-09-15T08:57:46.006Z,7.00
2022-09-15T09:00:18.269Z,6.80
2022-09-15T09:03:29.892Z,6.57
2022-09-15T09:06:42.546Z,6.13
2022-09-15T09:09:28.759Z,6.85
2022-09-15T09:12:22.912Z,7.70
2022-09-15T09:15:15.172Z,7.25
2022-09-15T09:18:12.386Z,6.65
2022-09-15T09:21:07.127Z,7.72
2022-09-15T09:23:59.806Z,6.80
2022-09-15T09:26:31.598Z,6.63
2022-09-15T09:29:01.906Z,6.80
2022-09-15T09:31:30.941Z,6.57
2022-09-15T09:34:22.017Z,7.28
2022-09-15T09:37:01.781Z,6.10
2022-09-15T09:39:30.561Z,5.75
2022-09-15T09:42:00.456Z,7.38
2022-09-15T09:44:32.995Z,6.85
2022-09-15T09:47:02.787Z,6.53
2022-09-15T09:49:50.354Z,6.30
2022-09-15T09:52:40.044Z,6.25
2022-09-15T09:55:20.763Z,5.75
2022-09-15T09:57:48.839Z,5.88
2022-09-15T10:00:41.689Z,6.13
2022-09-15T10:03:17.829Z,6.57
2022-09-15T10:05:48.151Z,6.55
2022-09-15T10:08:19.058Z,6.15
2022-09-15T10:11:02.212Z,6.43
2022-09-15T10:13:30.782Z,6.18
2022-09-15T10:16:02.876Z,5.90
2022-09-15T10:18:38.681Z,6.82
2022-09-15T10:21:10.767Z,6.03
2022-09-15T10:23:39.099Z,6.03
2022-09-15T10:26:20.986Z,5.57
2022-09-15T10:29:16.838Z,6.03
2022-09-15T10:31:47.155Z,5.93
2022-09-15T10:34:31.874Z,6.47
2022-09-15T10:37:26.592Z,6.03
2022-09-15T10:39:58.163Z,5.60
2022-09-15T10:42:48.434Z,5.55
2022-09-15T10:45:36.924Z,5.18
2022-09-15T10:48:33.143Z,6.03
2022-09-15T10:51:32.575Z,5.45
2022-09-15T10:54:28.690Z,5.57
2022-09-15T10:57:07.863Z,6.57
2022-09-15T11:00:11.665Z,5.43
2022-09-15T11:02:58.504Z,4.97
2022-09-15T11:05:48.032Z,5.68
2022-09-15T11:08:33.183Z,5.63
2022-09-15T11:11:22.488Z,6.07
2022-09-15T11:14:10.660Z,6.18
2022-09-15T11:17:01.853Z,5.95
2022-09-15T11:19:57.733Z,4.88
2022-09-15T11:22:37.270Z,5.32
2022-09-15T11:25:24.873Z,5.38
2022-09-15T11:28:33.493Z,5.93
2022-09-15T11:31:15.453Z,5.15
2022-09-15T11:33:54.061Z,5.68
2022-09-15T11:36:58.591Z,6.10
2022-09-15T11:39:38.335Z,6.10
2022-09-15T11:42:11.288Z,5.30
2022-09-15T11:44:42.301Z,4.90
2022-09-15T11:47:30.064Z,5.82
2022-09-15T11:50:14.543Z,4.95
2022-09-15T11:53:04.188Z,6.25
2022-09-15T11:56:09.501Z,5.97
2022-09-15T11:58:47.716Z,5.32
2022-09-15T12:01:24.125Z,5.25
2022-09-15T12:04:07.616Z,5.47
2022-09-15T12:09:22.682Z,4.75
2022-09-15T12:12:08.995Z,5.10
2022-09-15T12:14:42.463Z,5.78
2022-09-15T12:17:28.252Z,5.65
2022-09-15T12:20:20.610Z,5.07
2022-09-15T12:22:59.300Z,4.95
2022-09-15T12:25:36.091Z,5.18
2022-09-15T12:28:26.266Z,5.32
2022-09-15T12:31:15.453Z,5.60
2022-09-15T12:33:55.436Z,5.28
2022-09-15T12:36:42.916Z,5.18
2022-09-15T12:39:38.654Z,4.97
2022-09-15T12:42:16.202Z,5.82
2022-09-15T12:45:02.285Z,4.60
2022-09-15T12:47:36.931Z,4.70
2022-09-15T12:50:16.844Z,5.03
2022-09-15T12:52:53.035Z,5.15
2022-09-15T12:55:30.891Z,4.82
2022-09-15T12:58:16.192Z,5.22
2022-09-15T13:01:07.110Z,4.90
2022-09-15T13:03:41.416Z,5.10
2022-09-15T13:06:18.373Z,5.18
2022-09-15T13:08:51.297Z,5.47
2022-09-15T13:11:39.101Z,5.53
2022-09-15T13:14:15.998Z,5.28
2022-09-15T13:17:10.419Z,5.75
2022-09-15T13:19:47.798Z,5.43
2022-09-15T13:22:31.349Z,6.03
2022-09-15T13:27:45.302Z,5.18
2022-09-15T13:30:23.753Z,7.35
2022-09-15T13:33:19.494Z,5.55
2022-09-15T13:35:59.366Z,5.10
2022-09-15T13:38:45.341Z,5.53
2022-09-15T13:41:35.391Z,5.28
2022-09-15T13:44:31.678Z,5.63
2022-09-15T13:47:27.130Z,5.78
2022-09-15T13:50:12.918Z,5.55
2022-09-15T13:52:44.315Z,5.72
2022-09-15T13:55:36.481Z,5.15
2022-09-15T14:01:02.027Z,5.30
2022-09-15T14:03:50.121Z,5.00
2022-09-15T14:06:31.660Z,7.03
2022-09-15T14:09:05.790Z,5.80
2022-09-15T14:11:37.209Z,5.68
2022-09-15T14:14:12.094Z,5.68
2022-09-15T14:16:40.797Z,5.90
2022-09-15T14:19:40.438Z,6.72
2022-09-15T14:22:32.016Z,6.05
2022-09-15T14:25:06.924Z,5.70
2022-09-15T14:27:38.110Z,6.50
2022-09-15T14:30:18.724Z,6.40
2022-09-15T14:32:51.068Z,5.88
2022-09-15T14:35:26.465Z,6.10
2022-09-15T14:37:59.909Z,6.28
2022-09-15T14:40:38.899Z,5.68
2022-09-15T14:43:28.245Z,5.63
2022-09-15T14:46:05.393Z,6.20
2022-09-15T14:48:37.429Z,6.32
2022-09-15T14:51:29.930Z,6.40
2022-09-15T14:54:01.550Z,6.13
2022-09-15T14:56:36.573Z,5.80
2022-09-15T14:59:09.435Z,5.80
2022-09-15T15:01:45.029Z,6.28
2022-09-15T15:04:32.582Z,6.35
2022-09-15T15:07:16.961Z,5.68
2022-09-15T15:09:51.662Z,5.93
2022-09-15T15:12:28.674Z,7.13
2022-09-15T15:14:57.947Z,6.85
2022-09-15T15:17:33.410Z,6.65
2022-09-15T15:20:24.760Z,6.47
2022-09-15T15:23:12.120Z,7.10
2022-09-15T15:25:41.088Z,6.07
2022-09-15T15:28:31.706Z,6.32
2022-09-15T15:31:21.328Z,6.78
2022-09-15T15:33:58.519Z,6.22
2022-09-15T15:36:31.465Z,6.43
2022-09-15T15:39:03.358Z,6.32
2022-09-15T15:41:43.821Z,6.28
2022-09-15T15:44:18.353Z,6.80
2022-09-15T15:47:02.908Z,6.20
2022-09-15T15:49:33.273Z,6.05
2022-09-15T15:52:03.064Z,6.60
2022-09-15T15:54:34.630Z,6.28
2022-09-15T15:57:28.921Z,5.47
2022-09-15T16:00:01.922Z,6.03
2022-09-15T16:04:58.854Z,6.03
2022-09-15T16:07:32.538Z,5.35
2022-09-15T16:10:02.913Z,5.30
2022-09-15T16:12:33.285Z,4.90
2022-09-15T16:15:11.775Z,5.25
2022-09-15T16:17:44.351Z,6.05
2022-09-15T16:20:18.110Z,5.85
2022-09-15T16:22:46.739Z,6.05
2022-09-15T16:25:19.781Z,4.97
2022-09-15T16:30:16.663Z,4.82
2022-09-15T16:32:45.392Z,5.38
2022-09-15T16:35:33.561Z,4.82
2022-09-15T16:38:02.397Z,5.05
2022-09-15T16:40:30.720Z,5.07
2022-09-15T16:42:59.334Z,4.60
2022-09-15T16:45:40.586Z,4.68
2022-09-15T16:48:10.385Z,5.40
2022-09-15T16:50:42.696Z,4.72
2022-09-15T16:53:16.771Z,5.15
2022-09-15T16:55:48.267Z,5.45
2022-09-15T16:58:18.107Z,4.05
2022-09-15T17:00:49.307Z,4.10
2022-09-15T17:03:20.223Z,4.10
2022-09-15T17:05:51.490Z,3.95
2022-09-15T17:08:22.551Z,4.05
2022-09-15T17:10:54.072Z,4.13
2022-09-15T17:13:27.796Z,4.13
2022-09-15T17:16:00.015Z,3.92
2022-09-15T17:18:30.235Z,3.97
2022-09-15T17:20:59.063Z,3.78
2022-09-15T17:23:35.779Z,3.88
2022-09-15T17:26:07.834Z,3.60
2022-09-15T17:28:38.232Z,3.70
2022-09-15T17:31:13.076Z,3.60
2022-09-15T17:33:41.952Z,3.90
2022-09-15T17:36:11.047Z,3.63
2022-09-15T17:38:41.951Z,3.85
2022-09-15T17:41:19.540Z,3.45
2022-09-15T17:43:48.322Z,3.70
2022-09-15T17:46:17.071Z,4.25
2022-09-15T17:48:45.757Z,3.97
2022-09-15T17:51:18.538Z,3.70
2022-09-15T17:53:48.130Z,3.65
2022-09-15T17:56:16.722Z,4.22
2022-09-15T17:58:45.970Z,3.65
2022-09-15T18:01:15.836Z,3.38
2022-09-15T18:03:46.360Z,3.88
2022-09-15T18:06:14.909Z,3.70
2022-09-15T18:08:43.342Z,3.83
2022-09-15T18:11:16.716Z,4.15
2022-09-15T18:13:45.375Z,4.55
2022-09-15T18:16:15.592Z,4.00
2022-09-15T18:18:44.345Z,4.15
2022-09-15T18:21:26.378Z,3.70
2022-09-15T18:23:54.956Z,3.97
2022-09-15T18:26:26.300Z,3.58
2022-09-15T18:28:55.668Z,3.95
2022-09-15T18:31:24.230Z,3.67
2022-09-15T18:33:53.279Z,3.50
2022-09-15T18:36:22.073Z,4.22
2022-09-15T18:38:50.615Z,4.20
2022-09-15T18:41:19.779Z,3.70
2022-09-15T18:43:50.287Z,3.58
2022-09-15T18:46:19.228Z,4.18
2022-09-15T18:48:48.115Z,4.00
2022-09-15T18:51:24.123Z,3.80
2022-09-15T18:53:58.784Z,4.70
2022-09-15T18:56:27.387Z,4.30
2022-09-15T18:58:56.442Z,3.80
2022-09-15T19:01:25.421Z,4.35
2022-09-15T19:03:54.209Z,4.00
2022-09-15T19:06:22.817Z,3.95
2022-09-15T19:08:51.341Z,4.07
2022-09-15T19:11:21.154Z,4.35
2022-09-15T19:13:49.835Z,4.07
2022-09-15T19:16:22.750Z,4.07
2022-09-15T19:18:52.118Z,4.72
2022-09-15T19:21:25.166Z,3.95
2022-09-15T19:23:59.543Z,4.13
2022-09-15T19:26:30.647Z,4.15
2022-09-15T19:28:59.661Z,4.13
2022-09-15T19:31:28.448Z,4.05
2022-09-15T19:33:56.803Z,3.65
2022-09-15T19:36:29.218Z,3.85
2022-09-15T19:41:26.935Z,4.18
2022-09-15T19:43:55.318Z,3.60
2022-09-15T19:46:26.132Z,3.97
2022-09-15T19:48:55.654Z,3.65
2022-09-15T19:51:24.855Z,4.05
2022-09-15T19:53:57.823Z,3.80
2022-09-15T19:56:28.011Z,3.92
2022-09-15T19:58:58.343Z,4.38
2022-09-15T20:01:29.475Z,4.30
2022-09-15T20:03:58.834Z,4.43
2022-09-15T20:06:31.690Z,4.13
2022-09-15T20:09:01.373Z,4.65
2022-09-15T20:11:31.177Z,5.45
2022-09-15T20:14:01.117Z,4.60
2022-09-15T20:16:30.454Z,4.32
2022-09-15T20:18:59.385Z,4.50
2022-09-15T20:21:50.667Z,4.45
2022-09-15T20:24:21.314Z,3.80
2022-09-15T20:26:50.117Z,5.00
2022-09-15T20:29:18.989Z,4.10
2022-09-15T20:31:48.125Z,5.00
2022-09-15T20:34:17.070Z,4.50
2022-09-15T20:36:46.009Z,4.43
2022-09-15T20:39:16.608Z,5.50
2022-09-15T20:41:48.223Z,5.03
2022-09-15T20:44:17.368Z,5.20
2022-09-15T20:46:46.270Z,4.55
2022-09-15T20:49:14.862Z,5.63
2022-09-15T20:51:43.574Z,5.13
2022-09-15T20:54:12.622Z,5.25
2022-09-15T20:56:40.962Z,4.63
2022-09-15T20:59:11.773Z,5.00
2022-09-15T21:01:40.922Z,5.55
2022-09-15T21:04:11.005Z,4.63
2022-09-15T21:06:40.056Z,5.18
2022-09-15T21:09:08.606Z,4.53
2022-09-15T21:11:37.705Z,5.35
2022-09-15T21:14:06.593Z,4.57
2022-09-15T21:16:35.819Z,4.40
2022-09-15T21:19:05.595Z,5.85
2022-09-15T21:21:35.361Z,4.78
2022-09-15T21:24:07.181Z,5.47
2022-09-15T21:27:01.260Z,4.82
2022-09-15T21:29:31.405Z,4.47
2022-09-15T21:31:59.974Z,4.18
2022-09-15T21:34:29.427Z,4.28
2022-09-15T21:36:59.234Z,4.18
2022-09-15T21:39:27.772Z,4.65
2022-09-15T21:41:56.293Z,5.38
2022-09-15T21:44:24.988Z,4.55
2022-09-15T21:46:54.015Z,5.40
2022-09-15T21:49:22.559Z,4.30
2022-09-15T21:51:51.128Z,4.95
2022-09-15T21:54:19.643Z,4.10
2022-09-15T21:56:48.157Z,4.50
2022-09-15T21:59:19.196Z,5.30
2022-09-15T22:01:47.824Z,5.00
2022-09-15T22:04:16.621Z,4.45
2022-09-15T22:06:46.122Z,4.35
2022-09-15T22:09:18.695Z,4.60
2022-09-15T22:14:15.903Z,4.13
2022-09-15T22:16:44.838Z,4.85
2022-09-15T22:19:14.529Z,4.53
2022-09-15T22:21:43.839Z,4.80
2022-09-15T22:24:14.619Z,4.78
2022-09-15T22:26:44.671Z,4.80
2022-09-15T22:29:13.741Z,4.80
2022-09-15T22:31:43.425Z,4.82
2022-09-15T22:34:12.044Z,4.90
2022-09-15T22:36:40.578Z,5.28
2022-09-15T22:39:09.364Z,4.55
2022-09-15T22:41:40.321Z,5.40
2022-09-15T22:44:18.024Z,4.53
2022-09-15T22:46:46.903Z,4.63
2022-09-15T22:49:15.484Z,4.57
2022-09-15T22:51:44.193Z,5.13
2022-09-15T22:54:12.795Z,4.38
2022-09-15T22:56:41.314Z,5.20
2022-09-15T22:59:10.329Z,4.97
2022-09-15T23:01:38.985Z,4.97
2022-09-15T23:04:07.617Z,5.63
2022-09-15T23:06:36.425Z,4.78
2022-09-15T23:09:08.039Z,5.05
2022-09-15T23:11:38.687Z,4.95
2022-09-15T23:14:08.955Z,5.38
2022-09-15T23:16:37.688Z,4.97
2022-09-15T23:19:06.600Z,4.70
2022-09-15T23:21:35.785Z,5.00
2022-09-15T23:24:04.511Z,4.60
2022-09-15T23:26:33.351Z,5.43
2022-09-15T23:29:01.856Z,5.10
2022-09-15T23:31:30.423Z,5.15
2022-09-15T23:33:58.797Z,4.78
2022-09-15T23:36:27.328Z,5.32
2022-09-15T23:38:56.422Z,5.32
2022-09-15T23:41:26.036Z,5.35
2022-09-15T23:43:54.660Z,4.93
2022-09-15T23:46:23.244Z,5.38
2022-09-15T23:48:51.894Z,5.50
2022-09-15T23:51:20.515Z,5.30
2022-09-15T23:53:49.133Z,4.85
2022-09-15T23:56:17.924Z,5.03
2022-09-15T23:58:49.484Z,5.20
